createdAt,value
2023-01-17T00:02:01.704Z,75.33
2023-01-17T00:04:48.123Z,54.63
2023-01-17T00:07:35.850Z,75.95
2023-01-17T00:10:11.352Z,74.77
2023-01-17T00:12:39.480Z,52.70
2023-01-17T00:15:07.908Z,68.30
2023-01-17T00:17:35.217Z,54.33
2023-01-17T00:20:21.640Z,57.33
2023-01-17T00:23:08.040Z,58.15
2023-01-17T00:25:56.562Z,52.83
2023-01-17T00:28:24.815Z,55.37
2023-01-17T00:30:52.179Z,46.95
2023-01-17T00:33:20.294Z,61.73
2023-01-17T00:35:47.918Z,58.67
2023-01-17T00:38:16.885Z,63.15
2023-01-17T00:40:44.724Z,44.67
2023-01-17T00:43:31.813Z,52.28
2023-01-17T00:46:17.853Z,47.25
2023-01-17T00:51:50.397Z,43.42
2023-01-17T00:54:36.650Z,50.83
2023-01-17T00:57:22.871Z,44.47
2023-01-17T01:02:54.829Z,45.20
2023-01-17T01:05:41.391Z,42.03
2023-01-17T01:08:53.643Z,43.45
2023-01-17T01:11:40.160Z,40.80
2023-01-17T01:14:26.752Z,39.95
2023-01-17T01:17:13.145Z,34.65
2023-01-17T01:19:59.136Z,39.40
2023-01-17T01:25:31.107Z,37.47
2023-01-17T01:28:29.484Z,36.17
2023-01-17T01:31:18.349Z,35.00
2023-01-17T01:33:46.013Z,44.40
2023-01-17T01:36:13.469Z,34.33
2023-01-17T01:38:40.883Z,35.87
2023-01-17T01:41:08.545Z,32.30
2023-01-17T01:43:43.507Z,29.23
2023-01-17T01:46:18.299Z,35.93
2023-01-17T01:48:57.248Z,27.17
2023-01-17T01:51:40.053Z,30.83
2023-01-17T01:54:13.141Z,29.75
2023-01-17T01:56:40.995Z,28.77
2023-01-17T01:59:09.744Z,30.03
2023-01-17T02:01:37.552Z,22.83
2023-01-17T02:04:09.741Z,25.93
2023-01-17T02:06:42.407Z,26.73
2023-01-17T02:09:11.115Z,23.70
2023-01-17T02:11:38.794Z,25.13
2023-01-17T02:14:06.275Z,28.15
2023-01-17T02:17:07.264Z,29.30
2023-01-17T02:19:47.388Z,31.47
2023-01-17T02:22:36.517Z,31.70
2023-01-17T02:25:11.666Z,35.57
2023-01-17T02:28:05.710Z,32.80
2023-01-17T02:30:34.423Z,31.77
2023-01-17T02:33:33.059Z,39.57
2023-01-17T02:36:05.891Z,36.37
2023-01-17T02:38:38.519Z,34.03
2023-01-17T02:41:08.816Z,37.87
2023-01-17T02:43:36.641Z,40.83
2023-01-17T02:46:04.045Z,36.57
2023-01-17T02:48:32.352Z,46.03
2023-01-17T02:51:18.607Z,40.58
2023-01-17T02:53:54.876Z,33.50
2023-01-17T02:56:34.555Z,33.65
2023-01-17T02:59:06.901Z,36.80
2023-01-17T03:01:43.355Z,31.90
2023-01-17T03:04:31.414Z,35.20
2023-01-17T03:07:01.447Z,35.17
2023-01-17T03:09:29.287Z,31.87
2023-01-17T03:11:56.916Z,35.67
2023-01-17T03:14:24.518Z,38.30
2023-01-17T03:16:51.890Z,37.07
2023-01-17T03:19:19.291Z,31.13
2023-01-17T03:21:46.878Z,34.80
2023-01-17T03:24:14.250Z,33.60
2023-01-17T03:26:44.921Z,35.80
2023-01-17T03:29:12.562Z,30.37
2023-01-17T03:31:39.912Z,31.67
2023-01-17T03:34:07.282Z,31.97
2023-01-17T03:36:34.961Z,29.40
2023-01-17T03:39:02.945Z,29.00
2023-01-17T03:41:30.405Z,28.85
2023-01-17T03:43:58.121Z,27.42
2023-01-17T03:46:27.448Z,28.58
2023-01-17T03:48:54.897Z,26.87
2023-01-17T03:51:22.474Z,24.57
2023-01-17T03:53:50.732Z,25.77
2023-01-17T03:56:18.222Z,24.15
2023-01-17T03:58:45.894Z,24.40
2023-01-17T04:01:13.484Z,23.02
2023-01-17T04:03:41.337Z,20.93
2023-01-17T04:06:08.684Z,19.10
2023-01-17T04:08:36.123Z,29.50
2023-01-17T04:11:03.879Z,20.67
2023-01-17T04:13:31.228Z,21.63
2023-01-17T04:15:58.621Z,19.80
2023-01-17T04:18:26.328Z,16.50
2023-01-17T04:20:53.764Z,19.40
2023-01-17T04:23:21.101Z,20.35
2023-01-17T04:25:48.735Z,17.53
2023-01-17T04:28:16.474Z,18.58
2023-01-17T04:30:43.817Z,17.63
2023-01-17T04:33:11.465Z,15.65
2023-01-17T04:35:38.861Z,16.73
2023-01-17T04:38:06.273Z,16.77
2023-01-17T04:40:33.882Z,15.43
2023-01-17T04:43:01.308Z,15.37
2023-01-17T04:45:28.845Z,14.13
2023-01-17T04:47:56.631Z,12.63
2023-01-17T04:50:24.009Z,14.73
2023-01-17T04:52:51.400Z,13.97
2023-01-17T04:55:19.140Z,13.87
2023-01-17T04:57:47.755Z,13.10
2023-01-17T05:00:15.578Z,12.10
2023-01-17T05:02:43.179Z,13.65
2023-01-17T05:05:10.641Z,11.70
2023-01-17T05:07:38.162Z,10.43
2023-01-17T05:10:06.355Z,17.17
2023-01-17T05:12:33.698Z,15.57
2023-01-17T05:15:01.817Z,10.32
2023-01-17T05:17:29.452Z,11.45
2023-01-17T05:19:56.795Z,8.10
2023-01-17T05:22:24.141Z,8.50
2023-01-17T05:24:51.791Z,10.63
2023-01-17T05:27:19.134Z,7.55
2023-01-17T05:29:46.465Z,9.50
2023-01-17T05:32:14.058Z,8.07
2023-01-17T05:34:41.419Z,6.73
2023-01-17T05:37:08.846Z,7.22
2023-01-17T05:39:36.588Z,7.93
2023-01-17T05:42:03.963Z,9.95
2023-01-17T05:44:31.289Z,10.15
2023-01-17T05:46:59.028Z,9.38
2023-01-17T05:49:26.421Z,8.63
2023-01-17T05:51:55.077Z,8.53
2023-01-17T05:54:22.869Z,8.93
2023-01-17T05:56:50.219Z,8.67
2023-01-17T05:59:28.542Z,9.47
2023-01-17T06:01:59.976Z,9.73
2023-01-17T06:04:27.675Z,7.35
2023-01-17T06:06:55.063Z,9.87
2023-01-17T06:09:22.516Z,6.68
2023-01-17T06:11:50.106Z,7.03
2023-01-17T06:14:17.445Z,6.50
2023-01-17T06:16:44.783Z,6.00
2023-01-17T06:19:12.376Z,7.63
2023-01-17T06:21:39.701Z,8.30
2023-01-17T06:24:07.193Z,9.07
2023-01-17T06:26:34.867Z,7.77
2023-01-17T06:29:02.332Z,7.20
2023-01-17T06:31:29.802Z,8.50
2023-01-17T06:33:57.558Z,7.53
2023-01-17T06:36:24.910Z,8.97
2023-01-17T06:38:52.282Z,7.83
2023-01-17T06:41:19.869Z,9.60
2023-01-17T06:43:47.293Z,9.37
2023-01-17T06:46:14.673Z,11.30
2023-01-17T06:48:45.565Z,11.53
2023-01-17T06:51:12.930Z,8.33
2023-01-17T06:53:40.479Z,8.33
2023-01-17T06:56:08.552Z,13.40
2023-01-17T06:58:36.116Z,8.60
2023-01-17T07:01:07.880Z,9.27
2023-01-17T07:03:35.632Z,9.03
2023-01-17T07:06:03.026Z,8.30
2023-01-17T07:08:30.563Z,6.93
2023-01-17T07:11:00.028Z,9.60
2023-01-17T07:13:27.863Z,8.70
2023-01-17T07:15:55.347Z,8.33
2023-01-17T07:18:25.962Z,8.93
2023-01-17T07:20:53.518Z,7.17
2023-01-17T07:23:22.081Z,7.80
2023-01-17T07:25:53.697Z,7.83
2023-01-17T07:28:21.088Z,8.27
2023-01-17T07:30:48.531Z,5.20
2023-01-17T07:33:16.194Z,6.83
2023-01-17T07:35:43.591Z,8.30
2023-01-17T07:38:18.237Z,6.37
2023-01-17T07:40:49.030Z,5.77
2023-01-17T07:43:17.253Z,4.40
2023-01-17T07:45:46.305Z,6.00
2023-01-17T07:48:14.024Z,5.30
2023-01-17T07:50:41.563Z,5.27
2023-01-17T07:53:09.006Z,3.93
2023-01-17T07:55:36.822Z,3.87
2023-01-17T07:58:04.393Z,3.43
2023-01-17T08:00:31.777Z,4.07
2023-01-17T08:03:00.048Z,5.00
2023-01-17T08:05:31.868Z,4.17
2023-01-17T08:07:59.604Z,6.80
2023-01-17T08:10:27.168Z,4.83
2023-01-17T08:12:55.381Z,3.27
2023-01-17T08:15:23.677Z,2.23
2023-01-17T08:17:53.970Z,2.03
2023-01-17T08:20:21.428Z,3.83
2023-01-17T08:22:49.228Z,1.40
2023-01-17T08:25:16.711Z,2.40
2023-01-17T08:27:44.501Z,2.53
2023-01-17T08:30:12.362Z,1.63
2023-01-17T08:32:40.888Z,1.57
2023-01-17T08:35:08.988Z,2.07
2023-01-17T08:37:37.848Z,2.00
2023-01-17T08:40:06.058Z,1.60
2023-01-17T08:42:39.299Z,6.93
2023-01-17T08:45:08.425Z,1.80
2023-01-17T08:47:35.801Z,2.37
2023-01-17T08:50:05.976Z,4.00
2023-01-17T08:52:33.974Z,2.80
2023-01-17T08:55:01.320Z,2.57
2023-01-17T08:57:28.789Z,1.60
2023-01-17T08:59:56.371Z,1.90
2023-01-17T09:02:24.773Z,2.60
2023-01-17T09:04:52.442Z,2.30
2023-01-17T09:07:20.464Z,3.20
2023-01-17T09:09:48.329Z,1.67
2023-01-17T09:12:15.824Z,2.00
2023-01-17T09:14:43.431Z,2.10
2023-01-17T09:17:10.771Z,3.57
2023-01-17T09:19:42.179Z,5.67
2023-01-17T09:22:10.171Z,5.03
2023-01-17T09:24:37.751Z,1.83
2023-01-17T09:27:05.290Z,2.37
2023-01-17T09:29:32.934Z,2.27
2023-01-17T09:32:00.977Z,1.97
2023-01-17T09:34:28.498Z,2.40
2023-01-17T09:36:56.990Z,1.50
2023-01-17T09:39:24.424Z,1.77
2023-01-17T09:41:58.629Z,1.50
2023-01-17T09:44:43.164Z,1.40
2023-01-17T09:47:31.120Z,1.30
2023-01-17T09:50:03.744Z,2.07
2023-01-17T09:52:37.379Z,2.30
2023-01-17T09:55:20.643Z,2.20
2023-01-17T09:58:02.617Z,3.97
2023-01-17T10:00:58.243Z,2.87
2023-01-17T10:03:32.540Z,1.30
2023-01-17T10:06:21.460Z,2.47
2023-01-17T10:08:55.342Z,3.00
2023-01-17T10:11:41.189Z,2.55
2023-01-17T10:14:34.607Z,1.42
2023-01-17T10:17:20.633Z,3.17
2023-01-17T10:19:59.654Z,3.30
2023-01-17T10:22:43.157Z,3.62
2023-01-17T10:25:23.254Z,2.37
2023-01-17T10:27:58.762Z,2.60
2023-01-17T10:30:34.495Z,1.98
2023-01-17T10:33:04.293Z,1.40
2023-01-17T10:35:34.784Z,1.77
2023-01-17T10:38:05.323Z,1.37
2023-01-17T10:40:50.300Z,1.42
2023-01-17T10:43:36.586Z,1.33
2023-01-17T10:46:04.642Z,4.05
2023-01-17T10:48:46.095Z,3.83
2023-01-17T10:51:44.770Z,1.77
2023-01-17T10:54:40.065Z,1.85
2023-01-17T10:57:13.565Z,2.25
2023-01-17T10:59:41.068Z,1.87
2023-01-17T11:02:23.941Z,1.67
2023-01-17T11:04:54.442Z,1.58
2023-01-17T11:07:26.686Z,2.25
2023-01-17T11:09:55.366Z,2.20
2023-01-17T11:12:24.366Z,2.00
2023-01-17T11:14:58.804Z,3.07
2023-01-17T11:17:27.813Z,2.17
2023-01-17T11:20:07.099Z,6.60
2023-01-17T11:22:35.231Z,2.55
2023-01-17T11:25:02.687Z,2.78
2023-01-17T11:27:34.241Z,3.70
2023-01-17T11:30:02.851Z,4.07
2023-01-17T11:32:32.152Z,3.00
2023-01-17T11:35:21.216Z,3.17
2023-01-17T11:37:50.505Z,2.90
2023-01-17T11:40:24.407Z,3.90
2023-01-17T11:43:10.531Z,4.28
2023-01-17T11:45:41.196Z,2.42
2023-01-17T11:48:08.862Z,2.65
2023-01-17T11:50:37.642Z,3.90
2023-01-17T11:53:17.080Z,2.83
2023-01-17T11:56:25.346Z,8.85
2023-01-17T11:59:23.017Z,4.00
2023-01-17T12:02:04.891Z,4.30
2023-01-17T12:04:36.756Z,3.28
2023-01-17T12:07:08.118Z,3.62
2023-01-17T12:09:41.086Z,3.85
2023-01-17T12:13:07.785Z,4.78
2023-01-17T12:15:53.093Z,3.62
2023-01-17T12:18:20.416Z,4.68
2023-01-17T12:21:12.370Z,4.95
2023-01-17T12:24:17.699Z,6.85
2023-01-17T12:27:22.920Z,3.83
2023-01-17T12:29:59.075Z,2.93
2023-01-17T12:32:46.827Z,3.35
2023-01-17T12:35:25.482Z,3.58
2023-01-17T12:38:06.108Z,3.30
2023-01-17T12:40:37.445Z,4.97
2023-01-17T12:43:38.445Z,3.10
2023-01-17T12:46:27.360Z,2.80
2023-01-17T12:49:16.747Z,3.58
2023-01-17T12:51:44.439Z,3.20
2023-01-17T12:54:18.394Z,3.05
2023-01-17T12:56:51.169Z,5.15
2023-01-17T12:59:40.463Z,4.60
2023-01-17T13:02:20.534Z,3.92
2023-01-17T13:04:59.789Z,3.83
2023-01-17T13:07:33.124Z,4.45
2023-01-17T13:10:23.769Z,4.97
2023-01-17T13:12:51.117Z,6.03
2023-01-17T13:15:21.363Z,4.40
2023-01-17T13:17:51.536Z,5.90
2023-01-17T13:20:32.048Z,5.93
2023-01-17T13:23:29.163Z,4.22
2023-01-17T13:25:58.320Z,6.32
2023-01-17T13:28:44.418Z,5.12
2023-01-17T13:34:15.761Z,4.90
2023-01-17T13:37:01.549Z,6.03
2023-01-17T13:39:46.284Z,5.57
2023-01-17T13:42:51.674Z,8.25
2023-01-17T13:45:24.172Z,6.60
2023-01-17T13:47:52.872Z,4.62
2023-01-17T13:50:38.720Z,7.43
2023-01-17T13:53:34.248Z,7.43
2023-01-17T13:56:19.639Z,8.77
2023-01-17T13:58:50.669Z,9.52
2023-01-17T14:01:24.439Z,8.65
2023-01-17T14:03:52.142Z,7.85
2023-01-17T14:06:38.731Z,5.53
2023-01-17T14:09:18.578Z,7.07
2023-01-17T14:12:24.715Z,6.72
2023-01-17T14:14:55.532Z,5.50
2023-01-17T14:17:23.070Z,6.82
2023-01-17T14:20:21.392Z,6.50
2023-01-17T14:22:52.223Z,6.43
2023-01-17T14:25:19.988Z,6.62
2023-01-17T14:28:03.186Z,8.35
2023-01-17T14:30:34.425Z,8.18
2023-01-17T14:33:01.818Z,6.45
2023-01-17T14:35:34.346Z,6.68
2023-01-17T14:38:03.119Z,6.68
2023-01-17T14:40:34.540Z,6.82
2023-01-17T14:43:16.076Z,6.65
2023-01-17T14:45:43.578Z,7.95
2023-01-17T14:48:21.889Z,6.00
2023-01-17T14:50:50.339Z,6.97
2023-01-17T14:53:26.107Z,8.50
2023-01-17T14:55:56.235Z,8.50
2023-01-17T14:58:30.454Z,6.28
2023-01-17T15:01:11.572Z,10.98
2023-01-17T15:03:47.930Z,9.35
2023-01-17T15:06:23.132Z,10.43
2023-01-17T15:08:53.990Z,9.52
2023-01-17T15:11:26.452Z,9.13
2023-01-17T15:13:57.359Z,6.72
2023-01-17T15:16:26.808Z,11.15
2023-01-17T15:18:55.587Z,7.62
2023-01-17T15:21:24.849Z,6.15
2023-01-17T15:23:59.748Z,7.65
2023-01-17T15:26:28.934Z,7.30
2023-01-17T15:29:04.608Z,8.27
2023-01-17T15:31:42.937Z,10.07
2023-01-17T15:34:33.802Z,8.40
2023-01-17T15:37:03.085Z,16.12
2023-01-17T15:39:34.361Z,11.70
2023-01-17T15:42:04.632Z,10.65
2023-01-17T15:44:47.968Z,10.52
2023-01-17T15:47:28.004Z,8.70
2023-01-17T15:49:55.397Z,12.65
2023-01-17T15:52:23.008Z,10.23
2023-01-17T15:54:53.393Z,11.80
2023-01-17T15:57:23.238Z,11.75
2023-01-17T16:00:05.729Z,11.60
2023-01-17T16:02:43.187Z,9.18
2023-01-17T16:05:23.504Z,9.70
2023-01-17T16:07:58.233Z,10.77
2023-01-17T16:10:28.716Z,15.20
2023-01-17T16:12:56.381Z,10.70
2023-01-17T16:15:24.028Z,11.68
2023-01-17T16:17:53.929Z,12.10
2023-01-17T16:20:22.088Z,11.77
2023-01-17T16:22:50.435Z,9.30
2023-01-17T16:25:22.543Z,9.90
2023-01-17T16:27:50.294Z,9.38
2023-01-17T16:30:19.238Z,8.27
2023-01-17T16:32:50.464Z,10.20
2023-01-17T16:35:22.376Z,8.98
2023-01-17T16:37:51.019Z,10.27
2023-01-17T16:40:22.611Z,9.48
2023-01-17T16:42:50.057Z,8.50
2023-01-17T16:45:17.529Z,12.95
2023-01-17T16:47:46.151Z,8.98
2023-01-17T16:50:15.379Z,8.40
2023-01-17T16:52:42.738Z,8.43
2023-01-17T16:55:12.535Z,9.35
2023-01-17T16:57:39.968Z,7.43
2023-01-17T17:00:07.914Z,7.97
2023-01-17T17:02:36.071Z,9.23
2023-01-17T17:05:03.556Z,9.37
2023-01-17T17:07:30.942Z,9.45
2023-01-17T17:09:58.746Z,10.82
2023-01-17T17:12:26.118Z,9.20
2023-01-17T17:14:53.519Z,8.87
2023-01-17T17:17:21.140Z,9.70
2023-01-17T17:19:48.558Z,8.77
2023-01-17T17:22:15.923Z,13.03
2023-01-17T17:24:43.514Z,12.67
2023-01-17T17:27:10.846Z,13.63
2023-01-17T17:29:38.184Z,11.55
2023-01-17T17:32:07.090Z,11.47
2023-01-17T17:34:36.682Z,11.23
2023-01-17T17:37:04.585Z,13.40
2023-01-17T17:39:32.216Z,11.83
2023-01-17T17:41:59.554Z,11.00
2023-01-17T17:44:27.519Z,10.93
2023-01-17T17:46:55.193Z,13.23
2023-01-17T17:49:22.734Z,9.23
2023-01-17T17:51:50.096Z,15.27
2023-01-17T17:54:17.953Z,13.67
2023-01-17T17:56:47.317Z,22.35
2023-01-17T17:59:18.236Z,16.67
2023-01-17T18:01:46.086Z,11.13
2023-01-17T18:04:14.215Z,14.03
2023-01-17T18:06:41.674Z,12.43
2023-01-17T18:09:09.962Z,12.30
2023-01-17T18:11:38.734Z,11.13
2023-01-17T18:14:06.632Z,12.50
2023-01-17T18:16:41.412Z,12.80
2023-01-17T18:19:13.300Z,13.33
2023-01-17T18:21:40.720Z,12.10
2023-01-17T18:24:10.225Z,12.10
2023-01-17T18:26:39.378Z,9.90
2023-01-17T18:29:07.395Z,10.60
2023-01-17T18:31:34.811Z,8.70
2023-01-17T18:34:10.403Z,9.87
2023-01-17T18:36:38.109Z,9.70
2023-01-17T18:39:14.833Z,9.23
2023-01-17T18:41:42.279Z,7.70
2023-01-17T18:44:09.998Z,10.93
2023-01-17T18:46:37.843Z,8.60
2023-01-17T18:49:05.250Z,7.63
2023-01-17T18:51:34.360Z,9.83
2023-01-17T18:54:05.915Z,6.90
2023-01-17T18:56:34.719Z,7.60
2023-01-17T18:59:02.320Z,8.43
2023-01-17T19:01:30.752Z,10.10
2023-01-17T19:03:59.809Z,9.03
2023-01-17T19:06:32.312Z,8.77
2023-01-17T19:08:59.957Z,7.13
2023-01-17T19:11:27.700Z,7.07
2023-01-17T19:13:55.394Z,8.77
2023-01-17T19:16:30.600Z,5.83
2023-01-17T19:19:01.791Z,5.90
2023-01-17T19:21:29.510Z,6.60
